sensor_id;sensor_type;location;lat;lon;timestamp;temperature;humidity
17370;DHT22;8802;52.402;4.920;2022-10-16T00:01:50;17.10;94.20
17370;DHT22;8802;52.402;4.920;2022-10-16T00:04:17;17.10;94.20
17370;DHT22;8802;52.402;4.920;2022-10-16T00:06:44;17.10;94.20
17370;DHT22;8802;52.402;4.920;2022-10-16T00:09:11;17.10;94.20
17370;DHT22;8802;52.402;4.920;2022-10-16T00:11:39;17.10;94.50
17370;DHT22;8802;52.402;4.920;2022-10-16T00:14:08;17.10;94.20
17370;DHT22;8802;52.402;4.920;2022-10-16T00:16:36;17.10;94.10
17370;DHT22;8802;52.402;4.920;2022-10-16T00:19:04;17.00;94.10
17370;DHT22;8802;52.402;4.920;2022-10-16T00:21:34;17.00;94.00
17370;DHT22;8802;52.402;4.920;2022-10-16T00:24:03;17.10;94.00
17370;DHT22;8802;52.402;4.920;2022-10-16T00:26:31;17.10;94.00
17370;DHT22;8802;52.402;4.920;2022-10-16T00:28:59;17.00;93.80
17370;DHT22;8802;52.402;4.920;2022-10-16T00:31:26;17.00;93.80
17370;DHT22;8802;52.402;4.920;2022-10-16T00:33:53;17.00;93.80
17370;DHT22;8802;52.402;4.920;2022-10-16T00:36:23;17.00;93.80
17370;DHT22;8802;52.402;4.920;2022-10-16T00:38:51;17.00;93.80
17370;DHT22;8802;52.402;4.920;2022-10-16T00:41:20;17.00;93.70
17370;DHT22;8802;52.402;4.920;2022-10-16T00:43:49;17.00;93.60
17370;DHT22;8802;52.402;4.920;2022-10-16T00:46:20;17.00;93.70
17370;DHT22;8802;52.402;4.920;2022-10-16T00:48:51;17.00;93.60
17370;DHT22;8802;52.402;4.920;2022-10-16T00:51:21;17.00;93.60
17370;DHT22;8802;52.402;4.920;2022-10-16T00:53:50;17.00;93.60
17370;DHT22;8802;52.402;4.920;2022-10-16T00:56:18;17.00;93.60
17370;DHT22;8802;52.402;4.920;2022-10-16T00:58:45;17.00;93.60
17370;DHT22;8802;52.402;4.920;2022-10-16T01:01:12;17.10;93.50
17370;DHT22;8802;52.402;4.920;2022-10-16T01:03:39;17.00;93.60
17370;DHT22;8802;52.402;4.920;2022-10-16T01:06:23;17.00;93.50
17370;DHT22;8802;52.402;4.920;2022-10-16T01:09:00;17.00;93.50
17370;DHT22;8802;52.402;4.920;2022-10-16T01:11:33;17.00;93.50
17370;DHT22;8802;52.402;4.920;2022-10-16T01:14:11;17.00;93.60
17370;DHT22;8802;52.402;4.920;2022-10-16T01:16:45;17.00;93.60
17370;DHT22;8802;52.402;4.920;2022-10-16T01:19:19;17.00;93.60
17370;DHT22;8802;52.402;4.920;2022-10-16T01:21:53;17.00;93.60
17370;DHT22;8802;52.402;4.920;2022-10-16T01:24:31;17.00;93.60
17370;DHT22;8802;52.402;4.920;2022-10-16T01:27:08;17.00;93.70
17370;DHT22;8802;52.402;4.920;2022-10-16T01:29:40;17.00;93.60
17370;DHT22;8802;52.402;4.920;2022-10-16T01:32:17;16.90;93.60
17370;DHT22;8802;52.402;4.920;2022-10-16T01:34:49;16.90;93.60
17370;DHT22;8802;52.402;4.920;2022-10-16T01:37:22;16.90;93.60
17370;DHT22;8802;52.402;4.920;2022-10-16T01:39:55;16.90;93.50
17370;DHT22;8802;52.402;4.920;2022-10-16T01:42:30;16.90;93.50
17370;DHT22;8802;52.402;4.920;2022-10-16T01:44:58;16.90;93.40
17370;DHT22;8802;52.402;4.920;2022-10-16T01:47:27;16.90;93.50
17370;DHT22;8802;52.402;4.920;2022-10-16T01:49:56;16.80;93.50
17370;DHT22;8802;52.402;4.920;2022-10-16T01:52:26;16.90;93.60
17370;DHT22;8802;52.402;4.920;2022-10-16T01:54:56;16.90;93.60
17370;DHT22;8802;52.402;4.920;2022-10-16T01:57:26;16.80;93.60
17370;DHT22;8802;52.402;4.920;2022-10-16T01:59:56;16.90;93.60
17370;DHT22;8802;52.402;4.920;2022-10-16T02:02:27;16.80;93.60
17370;DHT22;8802;52.402;4.920;2022-10-16T02:04:58;16.80;93.70
17370;DHT22;8802;52.402;4.920;2022-10-16T02:07:27;16.80;93.70
17370;DHT22;8802;52.402;4.920;2022-10-16T02:09:54;16.80;93.80
17370;DHT22;8802;52.402;4.920;2022-10-16T02:12:26;16.90;93.90
17370;DHT22;8802;52.402;4.920;2022-10-16T02:14:54;16.80;93.90
17370;DHT22;8802;52.402;4.920;2022-10-16T02:17:21;16.80;93.90
17370;DHT22;8802;52.402;4.920;2022-10-16T02:19:50;16.80;94.00
17370;DHT22;8802;52.402;4.920;2022-10-16T02:22:22;16.80;94.00
17370;DHT22;8802;52.402;4.920;2022-10-16T02:24:53;16.80;94.10
17370;DHT22;8802;52.402;4.920;2022-10-16T02:27:27;16.90;94.20
17370;DHT22;8802;52.402;4.920;2022-10-16T02:30:00;16.80;94.20
17370;DHT22;8802;52.402;4.920;2022-10-16T02:32:33;16.80;94.30
17370;DHT22;8802;52.402;4.920;2022-10-16T02:35:01;16.70;94.40
17370;DHT22;8802;52.402;4.920;2022-10-16T02:37:29;16.80;94.40
17370;DHT22;8802;52.402;4.920;2022-10-16T02:39:57;16.80;94.50
17370;DHT22;8802;52.402;4.920;2022-10-16T02:42:29;16.80;94.60
17370;DHT22;8802;52.402;4.920;2022-10-16T02:44:59;16.80;94.60
17370;DHT22;8802;52.402;4.920;2022-10-16T02:47:26;16.80;94.60
17370;DHT22;8802;52.402;4.920;2022-10-16T02:49:53;16.80;94.60
17370;DHT22;8802;52.402;4.920;2022-10-16T02:52:20;16.80;94.60
17370;DHT22;8802;52.402;4.920;2022-10-16T02:54:47;16.80;94.60
17370;DHT22;8802;52.402;4.920;2022-10-16T02:57:14;16.80;94.70
17370;DHT22;8802;52.402;4.920;2022-10-16T02:59:42;16.70;94.60
17370;DHT22;8802;52.402;4.920;2022-10-16T03:02:09;16.70;94.70
17370;DHT22;8802;52.402;4.920;2022-10-16T03:04:36;16.70;94.70
17370;DHT22;8802;52.402;4.920;2022-10-16T03:07:03;16.70;94.70
17370;DHT22;8802;52.402;4.920;2022-10-16T03:09:30;16.70;94.80
17370;DHT22;8802;52.402;4.920;2022-10-16T03:11:57;16.70;94.70
17370;DHT22;8802;52.402;4.920;2022-10-16T03:14:24;16.70;94.80
17370;DHT22;8802;52.402;4.920;2022-10-16T03:16:52;16.60;94.80
17370;DHT22;8802;52.402;4.920;2022-10-16T03:19:19;16.60;94.80
17370;DHT22;8802;52.402;4.920;2022-10-16T03:21:46;16.70;94.90
17370;DHT22;8802;52.402;4.920;2022-10-16T03:24:13;16.70;94.90
17370;DHT22;8802;52.402;4.920;2022-10-16T03:26:39;16.70;94.90
17370;DHT22;8802;52.402;4.920;2022-10-16T03:29:06;16.60;94.90
17370;DHT22;8802;52.402;4.920;2022-10-16T03:31:33;16.60;95.00
17370;DHT22;8802;52.402;4.920;2022-10-16T03:34:02;16.60;95.00
17370;DHT22;8802;52.402;4.920;2022-10-16T03:36:28;16.60;95.00
17370;DHT22;8802;52.402;4.920;2022-10-16T03:38:55;16.60;95.00
17370;DHT22;8802;52.402;4.920;2022-10-16T03:41:22;16.60;95.10
17370;DHT22;8802;52.402;4.920;2022-10-16T03:43:49;16.60;95.10
17370;DHT22;8802;52.402;4.920;2022-10-16T03:46:16;16.60;95.10
17370;DHT22;8802;52.402;4.920;2022-10-16T03:48:42;16.60;95.10
17370;DHT22;8802;52.402;4.920;2022-10-16T03:51:10;16.60;95.10
17370;DHT22;8802;52.402;4.920;2022-10-16T03:53:37;16.60;95.10
17370;DHT22;8802;52.402;4.920;2022-10-16T03:56:04;16.50;95.10
17370;DHT22;8802;52.402;4.920;2022-10-16T03:58:31;16.50;95.20
17370;DHT22;8802;52.402;4.920;2022-10-16T04:00:58;16.50;95.60
17370;DHT22;8802;52.402;4.920;2022-10-16T04:03:25;16.50;95.20
17370;DHT22;8802;52.402;4.920;2022-10-16T04:05:52;16.50;95.20
17370;DHT22;8802;52.402;4.920;2022-10-16T04:08:20;16.50;95.30
17370;DHT22;8802;52.402;4.920;2022-10-16T04:10:47;16.50;95.30
17370;DHT22;8802;52.402;4.920;2022-10-16T04:13:13;16.50;95.30
17370;DHT22;8802;52.402;4.920;2022-10-16T04:15:40;16.50;95.30
17370;DHT22;8802;52.402;4.920;2022-10-16T04:18:07;16.50;95.40
17370;DHT22;8802;52.402;4.920;2022-10-16T04:20:34;16.40;95.40
17370;DHT22;8802;52.402;4.920;2022-10-16T04:23:01;16.40;95.40
17370;DHT22;8802;52.402;4.920;2022-10-16T04:25:30;16.50;95.50
17370;DHT22;8802;52.402;4.920;2022-10-16T04:27:57;16.40;95.40
17370;DHT22;8802;52.402;4.920;2022-10-16T04:30:24;16.40;95.50
17370;DHT22;8802;52.402;4.920;2022-10-16T04:32:51;16.40;95.50
17370;DHT22;8802;52.402;4.920;2022-10-16T04:35:18;16.50;95.70
17370;DHT22;8802;52.402;4.920;2022-10-16T04:37:46;16.50;95.50
17370;DHT22;8802;52.402;4.920;2022-10-16T04:40:13;16.40;95.50
17370;DHT22;8802;52.402;4.920;2022-10-16T04:42:41;16.50;95.50
17370;DHT22;8802;52.402;4.920;2022-10-16T04:45:09;16.40;95.50
17370;DHT22;8802;52.402;4.920;2022-10-16T04:47:36;16.50;95.50
17370;DHT22;8802;52.402;4.920;2022-10-16T04:50:03;16.40;95.50
17370;DHT22;8802;52.402;4.920;2022-10-16T04:52:30;16.50;95.60
17370;DHT22;8802;52.402;4.920;2022-10-16T04:54:57;16.40;95.50
17370;DHT22;8802;52.402;4.920;2022-10-16T04:57:27;16.50;95.60
17370;DHT22;8802;52.402;4.920;2022-10-16T04:59:55;16.40;95.60
17370;DHT22;8802;52.402;4.920;2022-10-16T05:02:22;16.50;95.70
17370;DHT22;8802;52.402;4.920;2022-10-16T05:04:49;16.50;95.70
17370;DHT22;8802;52.402;4.920;2022-10-16T05:07:16;16.50;95.70
17370;DHT22;8802;52.402;4.920;2022-10-16T05:09:43;16.40;95.80
17370;DHT22;8802;52.402;4.920;2022-10-16T05:12:09;16.50;95.90
17370;DHT22;8802;52.402;4.920;2022-10-16T05:14:36;16.50;96.00
17370;DHT22;8802;52.402;4.920;2022-10-16T05:17:04;16.50;96.00
17370;DHT22;8802;52.402;4.920;2022-10-16T05:19:31;16.50;96.00
17370;DHT22;8802;52.402;4.920;2022-10-16T05:21:58;16.50;96.10
17370;DHT22;8802;52.402;4.920;2022-10-16T05:24:25;16.50;96.10
17370;DHT22;8802;52.402;4.920;2022-10-16T05:26:52;16.50;96.20
17370;DHT22;8802;52.402;4.920;2022-10-16T05:29:19;16.50;96.30
17370;DHT22;8802;52.402;4.920;2022-10-16T05:31:46;16.50;96.30
17370;DHT22;8802;52.402;4.920;2022-10-16T05:34:14;16.50;96.70
17370;DHT22;8802;52.402;4.920;2022-10-16T05:36:41;16.40;96.40
17370;DHT22;8802;52.402;4.920;2022-10-16T05:39:07;16.40;96.80
17370;DHT22;8802;52.402;4.920;2022-10-16T05:41:34;16.40;96.40
17370;DHT22;8802;52.402;4.920;2022-10-16T05:44:04;16.40;96.50
17370;DHT22;8802;52.402;4.920;2022-10-16T05:46:31;16.40;96.50
17370;DHT22;8802;52.402;4.920;2022-10-16T05:48:58;16.40;96.90
17370;DHT22;8802;52.402;4.920;2022-10-16T05:51:26;16.40;96.60
17370;DHT22;8802;52.402;4.920;2022-10-16T05:53:53;16.40;96.60
17370;DHT22;8802;52.402;4.920;2022-10-16T05:56:20;16.40;96.70
17370;DHT22;8802;52.402;4.920;2022-10-16T05:58:47;16.40;96.70
17370;DHT22;8802;52.402;4.920;2022-10-16T06:01:15;16.40;96.70
17370;DHT22;8802;52.402;4.920;2022-10-16T06:03:42;16.40;96.70
17370;DHT22;8802;52.402;4.920;2022-10-16T06:06:10;16.40;96.70
17370;DHT22;8802;52.402;4.920;2022-10-16T06:08:39;16.40;96.70
17370;DHT22;8802;52.402;4.920;2022-10-16T06:11:08;16.40;96.80
17370;DHT22;8802;52.402;4.920;2022-10-16T06:13:35;16.40;96.80
17370;DHT22;8802;52.402;4.920;2022-10-16T06:16:03;16.40;96.70
17370;DHT22;8802;52.402;4.920;2022-10-16T06:18:30;16.40;96.70
17370;DHT22;8802;52.402;4.920;2022-10-16T06:20:57;16.40;96.70
17370;DHT22;8802;52.402;4.920;2022-10-16T06:23:25;16.30;96.70
17370;DHT22;8802;52.402;4.920;2022-10-16T06:25:53;16.40;96.80
17370;DHT22;8802;52.402;4.920;2022-10-16T06:28:20;16.40;96.80
17370;DHT22;8802;52.402;4.920;2022-10-16T06:30:47;16.40;96.90
17370;DHT22;8802;52.402;4.920;2022-10-16T06:33:14;16.40;96.90
17370;DHT22;8802;52.402;4.920;2022-10-16T06:35:40;16.40;96.90
17370;DHT22;8802;52.402;4.920;2022-10-16T06:38:07;16.40;97.00
17370;DHT22;8802;52.402;4.920;2022-10-16T06:40:34;16.40;97.00
17370;DHT22;8802;52.402;4.920;2022-10-16T06:43:02;16.40;97.00
17370;DHT22;8802;52.402;4.920;2022-10-16T06:45:29;16.40;97.40
17370;DHT22;8802;52.402;4.920;2022-10-16T06:47:56;16.40;97.00
17370;DHT22;8802;52.402;4.920;2022-10-16T06:50:23;16.40;97.00
17370;DHT22;8802;52.402;4.920;2022-10-16T06:52:49;16.40;97.00
17370;DHT22;8802;52.402;4.920;2022-10-16T06:55:16;16.40;97.00
17370;DHT22;8802;52.402;4.920;2022-10-16T06:57:43;16.50;97.10
17370;DHT22;8802;52.402;4.920;2022-10-16T07:00:12;16.40;97.00
17370;DHT22;8802;52.402;4.920;2022-10-16T07:02:39;16.40;97.00
17370;DHT22;8802;52.402;4.920;2022-10-16T07:05:06;16.40;97.00
17370;DHT22;8802;52.402;4.920;2022-10-16T07:07:33;16.40;96.90
17370;DHT22;8802;52.402;4.920;2022-10-16T07:10:00;16.50;96.90
17370;DHT22;8802;52.402;4.920;2022-10-16T07:12:27;16.50;96.90
17370;DHT22;8802;52.402;4.920;2022-10-16T07:14:53;16.40;96.90
17370;DHT22;8802;52.402;4.920;2022-10-16T07:17:23;16.40;96.80
17370;DHT22;8802;52.402;4.920;2022-10-16T07:19:49;16.50;96.80
17370;DHT22;8802;52.402;4.920;2022-10-16T07:22:18;16.40;96.80
17370;DHT22;8802;52.402;4.920;2022-10-16T07:24:45;16.50;96.80
17370;DHT22;8802;52.402;4.920;2022-10-16T07:27:12;16.40;96.70
17370;DHT22;8802;52.402;4.920;2022-10-16T07:29:39;16.50;96.80
17370;DHT22;8802;52.402;4.920;2022-10-16T07:32:06;16.50;96.80
17370;DHT22;8802;52.402;4.920;2022-10-16T07:34:34;16.50;96.80
17370;DHT22;8802;52.402;4.920;2022-10-16T07:37:01;16.50;96.70
17370;DHT22;8802;52.402;4.920;2022-10-16T07:39:27;16.40;96.70
17370;DHT22;8802;52.402;4.920;2022-10-16T07:41:54;16.40;96.70
17370;DHT22;8802;52.402;4.920;2022-10-16T07:44:21;16.50;96.80
17370;DHT22;8802;52.402;4.920;2022-10-16T07:46:48;16.50;96.80
17370;DHT22;8802;52.402;4.920;2022-10-16T07:49:15;16.50;96.80
17370;DHT22;8802;52.402;4.920;2022-10-16T07:51:43;16.50;96.80
17370;DHT22;8802;52.402;4.920;2022-10-16T07:54:10;16.60;96.80
17370;DHT22;8802;52.402;4.920;2022-10-16T07:56:37;16.60;96.70
17370;DHT22;8802;52.402;4.920;2022-10-16T07:59:04;16.60;96.70
17370;DHT22;8802;52.402;4.920;2022-10-16T08:01:30;16.60;96.60
17370;DHT22;8802;52.402;4.920;2022-10-16T08:03:57;16.60;96.60
17370;DHT22;8802;52.402;4.920;2022-10-16T08:06:24;16.60;96.60
17370;DHT22;8802;52.402;4.920;2022-10-16T08:08:52;16.70;96.60
17370;DHT22;8802;52.402;4.920;2022-10-16T08:11:19;16.70;96.60
17370;DHT22;8802;52.402;4.920;2022-10-16T08:13:46;16.70;96.60
17370;DHT22;8802;52.402;4.920;2022-10-16T08:16:14;16.80;96.60
17370;DHT22;8802;52.402;4.920;2022-10-16T08:18:41;16.80;96.60
17370;DHT22;8802;52.402;4.920;2022-10-16T08:21:16;16.90;97.00
17370;DHT22;8802;52.402;4.920;2022-10-16T08:23:43;16.90;96.60
17370;DHT22;8802;52.402;4.920;2022-10-16T08:26:12;17.00;96.60
17370;DHT22;8802;52.402;4.920;2022-10-16T08:28:39;17.00;96.50
17370;DHT22;8802;52.402;4.920;2022-10-16T08:31:07;17.10;96.40
17370;DHT22;8802;52.402;4.920;2022-10-16T08:33:35;17.10;96.40
17370;DHT22;8802;52.402;4.920;2022-10-16T08:36:02;17.20;96.40
17370;DHT22;8802;52.402;4.920;2022-10-16T08:38:29;17.30;96.50
17370;DHT22;8802;52.402;4.920;2022-10-16T08:41:09;17.30;96.50
17370;DHT22;8802;52.402;4.920;2022-10-16T08:46:47;17.40;96.40
17370;DHT22;8802;52.402;4.920;2022-10-16T08:49:16;17.50;96.40
17370;DHT22;8802;52.402;4.920;2022-10-16T08:51:44;17.60;96.30
17370;DHT22;8802;52.402;4.920;2022-10-16T08:54:21;17.60;96.10
17370;DHT22;8802;52.402;4.920;2022-10-16T08:56:49;17.70;96.10
17370;DHT22;8802;52.402;4.920;2022-10-16T08:59:18;17.70;96.10
17370;DHT22;8802;52.402;4.920;2022-10-16T09:01:47;17.80;95.90
17370;DHT22;8802;52.402;4.920;2022-10-16T09:04:43;17.80;95.70
17370;DHT22;8802;52.402;4.920;2022-10-16T09:07:18;17.90;95.70
17370;DHT22;8802;52.402;4.920;2022-10-16T09:10:09;17.90;95.70
17370;DHT22;8802;52.402;4.920;2022-10-16T09:12:40;17.90;95.50
17370;DHT22;8802;52.402;4.920;2022-10-16T09:15:22;18.00;95.70
17370;DHT22;8802;52.402;4.920;2022-10-16T09:17:55;18.00;95.50
17370;DHT22;8802;52.402;4.920;2022-10-16T09:20:39;18.10;95.60
17370;DHT22;8802;52.402;4.920;2022-10-16T09:23:14;18.10;96.00
17370;DHT22;8802;52.402;4.920;2022-10-16T09:25:44;18.20;95.60
17370;DHT22;8802;52.402;4.920;2022-10-16T09:28:13;18.20;95.60
17370;DHT22;8802;52.402;4.920;2022-10-16T09:30:41;18.30;95.60
17370;DHT22;8802;52.402;4.920;2022-10-16T09:33:09;18.40;95.50
17370;DHT22;8802;52.402;4.920;2022-10-16T09:35:39;18.50;95.60
17370;DHT22;8802;52.402;4.920;2022-10-16T09:38:07;18.60;95.30
17370;DHT22;8802;52.402;4.920;2022-10-16T09:40:35;18.70;95.50
17370;DHT22;8802;52.402;4.920;2022-10-16T09:43:12;18.80;95.10
17370;DHT22;8802;52.402;4.920;2022-10-16T09:45:55;18.90;95.20
17370;DHT22;8802;52.402;4.920;2022-10-16T09:48:22;19.10;94.50
17370;DHT22;8802;52.402;4.920;2022-10-16T09:50:57;19.20;94.30
17370;DHT22;8802;52.402;4.920;2022-10-16T09:53:23;19.30;94.30
17370;DHT22;8802;52.402;4.920;2022-10-16T09:55:53;19.40;93.70
17370;DHT22;8802;52.402;4.920;2022-10-16T09:58:22;19.60;94.00
17370;DHT22;8802;52.402;4.920;2022-10-16T10:00:51;19.70;93.10
17370;DHT22;8802;52.402;4.920;2022-10-16T10:03:36;19.80;93.00
17370;DHT22;8802;52.402;4.920;2022-10-16T10:06:14;20.00;92.70
17370;DHT22;8802;52.402;4.920;2022-10-16T10:08:53;20.10;92.00
17370;DHT22;8802;52.402;4.920;2022-10-16T10:11:36;20.30;91.20
17370;DHT22;8802;52.402;4.920;2022-10-16T10:14:08;20.30;90.40
17370;DHT22;8802;52.402;4.920;2022-10-16T10:16:40;20.40;90.50
17370;DHT22;8802;52.402;4.920;2022-10-16T10:19:14;20.50;89.60
17370;DHT22;8802;52.402;4.920;2022-10-16T10:21:41;20.50;88.30
17370;DHT22;8802;52.402;4.920;2022-10-16T10:24:11;20.60;89.60
17370;DHT22;8802;52.402;4.920;2022-10-16T10:26:39;20.60;88.70
17370;DHT22;8802;52.402;4.920;2022-10-16T10:29:14;20.60;88.40
17370;DHT22;8802;52.402;4.920;2022-10-16T10:31:49;20.60;87.80
17370;DHT22;8802;52.402;4.920;2022-10-16T10:34:41;20.70;87.60
17370;DHT22;8802;52.402;4.920;2022-10-16T10:37:21;20.70;87.20
17370;DHT22;8802;52.402;4.920;2022-10-16T10:39:56;20.80;86.50
17370;DHT22;8802;52.402;4.920;2022-10-16T10:42:30;20.80;86.80
17370;DHT22;8802;52.402;4.920;2022-10-16T10:45:22;20.80;86.80
17370;DHT22;8802;52.402;4.920;2022-10-16T10:47:59;20.90;86.30
17370;DHT22;8802;52.402;4.920;2022-10-16T10:50:38;21.00;86.10
17370;DHT22;8802;52.402;4.920;2022-10-16T10:53:13;21.00;86.30
17370;DHT22;8802;52.402;4.920;2022-10-16T10:55:47;21.10;85.10
17370;DHT22;8802;52.402;4.920;2022-10-16T10:58:43;21.20;85.30
17370;DHT22;8802;52.402;4.920;2022-10-16T11:01:14;21.20;84.20
17370;DHT22;8802;52.402;4.920;2022-10-16T11:03:59;21.20;84.70
17370;DHT22;8802;52.402;4.920;2022-10-16T11:06:34;21.30;84.80
17370;DHT22;8802;52.402;4.920;2022-10-16T11:09:09;21.40;84.10
17370;DHT22;8802;52.402;4.920;2022-10-16T11:11:41;21.40;83.70
17370;DHT22;8802;52.402;4.920;2022-10-16T11:14:15;21.50;84.30
17370;DHT22;8802;52.402;4.920;2022-10-16T11:16:49;21.50;83.80
17370;DHT22;8802;52.402;4.920;2022-10-16T11:19:26;21.60;82.60
17370;DHT22;8802;52.402;4.920;2022-10-16T11:21:59;21.60;83.30
17370;DHT22;8802;52.402;4.920;2022-10-16T11:24:35;21.70;82.80
17370;DHT22;8802;52.402;4.920;2022-10-16T11:27:08;21.70;82.70
17370;DHT22;8802;52.402;4.920;2022-10-16T11:29:41;21.80;82.90
17370;DHT22;8802;52.402;4.920;2022-10-16T11:32:20;21.80;82.10
17370;DHT22;8802;52.402;4.920;2022-10-16T11:34:51;21.80;83.20
17370;DHT22;8802;52.402;4.920;2022-10-16T11:37:21;21.80;83.00
17370;DHT22;8802;52.402;4.920;2022-10-16T11:39:50;21.90;83.10
17370;DHT22;8802;52.402;4.920;2022-10-16T11:42:22;21.90;82.70
17370;DHT22;8802;52.402;4.920;2022-10-16T11:44:57;21.90;82.50
17370;DHT22;8802;52.402;4.920;2022-10-16T11:47:31;22.00;81.50
17370;DHT22;8802;52.402;4.920;2022-10-16T11:50:04;21.90;82.30
17370;DHT22;8802;52.402;4.920;2022-10-16T11:52:36;22.00;81.20
17370;DHT22;8802;52.402;4.920;2022-10-16T11:55:13;22.00;80.40
17370;DHT22;8802;52.402;4.920;2022-10-16T11:57:44;22.00;79.50
17370;DHT22;8802;52.402;4.920;2022-10-16T12:00:20;22.10;78.50
17370;DHT22;8802;52.402;4.920;2022-10-16T12:02:54;22.10;78.00
17370;DHT22;8802;52.402;4.920;2022-10-16T12:05:31;22.10;78.50
17370;DHT22;8802;52.402;4.920;2022-10-16T12:08:08;22.10;77.80
17370;DHT22;8802;52.402;4.920;2022-10-16T12:10:36;22.10;77.60
17370;DHT22;8802;52.402;4.920;2022-10-16T12:13:04;22.10;77.30
17370;DHT22;8802;52.402;4.920;2022-10-16T12:15:33;22.10;78.20
17370;DHT22;8802;52.402;4.920;2022-10-16T12:18:00;22.00;77.20
17370;DHT22;8802;52.402;4.920;2022-10-16T12:20:29;22.00;76.30
17370;DHT22;8802;52.402;4.920;2022-10-16T12:23:04;22.00;76.80
17370;DHT22;8802;52.402;4.920;2022-10-16T12:25:33;21.90;75.60
17370;DHT22;8802;52.402;4.920;2022-10-16T12:28:02;21.90;76.40
17370;DHT22;8802;52.402;4.920;2022-10-16T12:30:32;21.90;77.10
17370;DHT22;8802;52.402;4.920;2022-10-16T12:33:02;21.80;77.00
17370;DHT22;8802;52.402;4.920;2022-10-16T12:35:31;21.80;76.70
17370;DHT22;8802;52.402;4.920;2022-10-16T12:38:12;21.80;76.20
17370;DHT22;8802;52.402;4.920;2022-10-16T12:40:43;21.70;76.30
17370;DHT22;8802;52.402;4.920;2022-10-16T12:43:13;21.70;76.30
17370;DHT22;8802;52.402;4.920;2022-10-16T12:45:59;21.70;76.90
17370;DHT22;8802;52.402;4.920;2022-10-16T12:48:26;21.70;77.00
17370;DHT22;8802;52.402;4.920;2022-10-16T12:50:53;21.70;76.90
17370;DHT22;8802;52.402;4.920;2022-10-16T12:53:23;21.60;77.20
17370;DHT22;8802;52.402;4.920;2022-10-16T12:55:57;21.60;76.10
17370;DHT22;8802;52.402;4.920;2022-10-16T12:58:48;21.60;76.30
17370;DHT22;8802;52.402;4.920;2022-10-16T13:01:32;21.60;77.20
17370;DHT22;8802;52.402;4.920;2022-10-16T13:04:20;21.50;75.20
17370;DHT22;8802;52.402;4.920;2022-10-16T13:06:53;21.50;75.70
17370;DHT22;8802;52.402;4.920;2022-10-16T13:09:37;21.50;75.80
17370;DHT22;8802;52.402;4.920;2022-10-16T13:12:17;21.50;75.50
17370;DHT22;8802;52.402;4.920;2022-10-16T13:14:57;21.40;75.30
17370;DHT22;8802;52.402;4.920;2022-10-16T13:17:33;21.40;75.00
17370;DHT22;8802;52.402;4.920;2022-10-16T13:20:16;21.40;75.60
17370;DHT22;8802;52.402;4.920;2022-10-16T13:22:51;21.40;75.40
17370;DHT22;8802;52.402;4.920;2022-10-16T13:25:32;21.40;74.70
17370;DHT22;8802;52.402;4.920;2022-10-16T13:28:05;21.30;74.20
17370;DHT22;8802;52.402;4.920;2022-10-16T13:30:36;21.30;74.00
17370;DHT22;8802;52.402;4.920;2022-10-16T13:33:10;21.30;73.60
17370;DHT22;8802;52.402;4.920;2022-10-16T13:35:48;21.20;73.30
17370;DHT22;8802;52.402;4.920;2022-10-16T13:38:17;21.20;73.20
17370;DHT22;8802;52.402;4.920;2022-10-16T13:40:54;21.10;73.30
17370;DHT22;8802;52.402;4.920;2022-10-16T13:43:24;21.10;73.40
17370;DHT22;8802;52.402;4.920;2022-10-16T13:45:56;21.10;72.80
17370;DHT22;8802;52.402;4.920;2022-10-16T13:48:24;21.00;73.80
17370;DHT22;8802;52.402;4.920;2022-10-16T13:51:05;21.00;74.20
17370;DHT22;8802;52.402;4.920;2022-10-16T13:53:33;21.00;74.50
17370;DHT22;8802;52.402;4.920;2022-10-16T13:56:04;20.90;74.70
17370;DHT22;8802;52.402;4.920;2022-10-16T13:58:32;20.90;73.60
17370;DHT22;8802;52.402;4.920;2022-10-16T14:01:01;20.90;73.20
17370;DHT22;8802;52.402;4.920;2022-10-16T14:03:30;20.80;72.80
17370;DHT22;8802;52.402;4.920;2022-10-16T14:06:00;20.80;72.90
17370;DHT22;8802;52.402;4.920;2022-10-16T14:08:28;20.80;73.50
17370;DHT22;8802;52.402;4.920;2022-10-16T14:10:57;20.80;73.50
17370;DHT22;8802;52.402;4.920;2022-10-16T14:13:31;20.80;74.00
17370;DHT22;8802;52.402;4.920;2022-10-16T14:16:05;20.70;73.00
17370;DHT22;8802;52.402;4.920;2022-10-16T14:18:32;20.70;74.40
17370;DHT22;8802;52.402;4.920;2022-10-16T14:21:04;20.70;75.10
17370;DHT22;8802;52.402;4.920;2022-10-16T14:23:35;20.70;75.10
17370;DHT22;8802;52.402;4.920;2022-10-16T14:26:17;20.60;74.90
17370;DHT22;8802;52.402;4.920;2022-10-16T14:28:46;20.60;74.60
17370;DHT22;8802;52.402;4.920;2022-10-16T14:31:29;20.60;74.70
17370;DHT22;8802;52.402;4.920;2022-10-16T14:33:56;20.60;74.90
17370;DHT22;8802;52.402;4.920;2022-10-16T14:36:24;20.60;75.20
17370;DHT22;8802;52.402;4.920;2022-10-16T14:39:00;20.60;75.50
17370;DHT22;8802;52.402;4.920;2022-10-16T14:41:29;20.60;74.90
17370;DHT22;8802;52.402;4.920;2022-10-16T14:44:01;20.50;75.50
17370;DHT22;8802;52.402;4.920;2022-10-16T14:46:32;20.50;75.40
17370;DHT22;8802;52.402;4.920;2022-10-16T14:49:02;20.50;75.50
17370;DHT22;8802;52.402;4.920;2022-10-16T14:51:30;20.40;75.70
17370;DHT22;8802;52.402;4.920;2022-10-16T14:53:57;20.50;75.60
17370;DHT22;8802;52.402;4.920;2022-10-16T14:56:27;20.40;76.00
17370;DHT22;8802;52.402;4.920;2022-10-16T14:58:56;20.40;75.90
17370;DHT22;8802;52.402;4.920;2022-10-16T15:01:24;20.40;76.60
17370;DHT22;8802;52.402;4.920;2022-10-16T15:03:51;20.40;76.20
17370;DHT22;8802;52.402;4.920;2022-10-16T15:06:20;20.30;75.70
17370;DHT22;8802;52.402;4.920;2022-10-16T15:08:47;20.30;76.20
17370;DHT22;8802;52.402;4.920;2022-10-16T15:11:16;20.30;76.60
17370;DHT22;8802;52.402;4.920;2022-10-16T15:13:43;20.30;76.60
17370;DHT22;8802;52.402;4.920;2022-10-16T15:16:12;20.20;76.40
17370;DHT22;8802;52.402;4.920;2022-10-16T15:18:41;20.20;76.70
17370;DHT22;8802;52.402;4.920;2022-10-16T15:21:07;20.30;76.40
17370;DHT22;8802;52.402;4.920;2022-10-16T15:23:34;20.20;76.70
17370;DHT22;8802;52.402;4.920;2022-10-16T15:26:01;20.20;77.70
17370;DHT22;8802;52.402;4.920;2022-10-16T15:28:28;20.20;77.30
17370;DHT22;8802;52.402;4.920;2022-10-16T15:30:56;20.20;77.50
17370;DHT22;8802;52.402;4.920;2022-10-16T15:33:24;20.20;77.60
17370;DHT22;8802;52.402;4.920;2022-10-16T15:35:54;20.20;78.00
17370;DHT22;8802;52.402;4.920;2022-10-16T15:38:22;20.20;78.40
17370;DHT22;8802;52.402;4.920;2022-10-16T15:40:50;20.20;78.00
17370;DHT22;8802;52.402;4.920;2022-10-16T15:43:17;20.20;77.90
17370;DHT22;8802;52.402;4.920;2022-10-16T15:45:44;20.20;78.10
17370;DHT22;8802;52.402;4.920;2022-10-16T15:48:12;20.20;78.50
17370;DHT22;8802;52.402;4.920;2022-10-16T15:50:40;20.10;78.40
17370;DHT22;8802;52.402;4.920;2022-10-16T15:53:09;20.10;78.40
17370;DHT22;8802;52.402;4.920;2022-10-16T15:55:35;20.10;78.90
17370;DHT22;8802;52.402;4.920;2022-10-16T15:58:03;20.10;78.70
17370;DHT22;8802;52.402;4.920;2022-10-16T16:00:31;20.10;78.90
17370;DHT22;8802;52.402;4.920;2022-10-16T16:02:58;20.10;79.30
17370;DHT22;8802;52.402;4.920;2022-10-16T16:05:24;20.10;79.60
17370;DHT22;8802;52.402;4.920;2022-10-16T16:07:52;20.00;79.90